createdAt,value
2018-10-03T00:01:12.352Z,99435.34
2018-10-03T00:03:42.836Z,99450.81
2018-10-03T00:06:13.068Z,99439.45
2018-10-03T00:08:43.301Z,99447.38
2018-10-03T00:11:14.228Z,99434.53
2018-10-03T00:13:44.735Z,99437.09
2018-10-03T00:16:15.299Z,99428.55
2018-10-03T00:18:46.422Z,99429.33
2018-10-03T00:21:16.966Z,99430.75
2018-10-03T00:23:47.784Z,99431.27
2018-10-03T00:26:18.333Z,99429.65
2018-10-03T00:28:48.614Z,99433.31
2018-10-03T00:31:19.165Z,99439.84
2018-10-03T00:33:49.742Z,99426.86
2018-10-03T00:36:19.978Z,99440.53
2018-10-03T00:38:52.314Z,99436.72
2018-10-03T00:41:22.824Z,99447.14
2018-10-03T00:43:53.040Z,99443.88
2018-10-03T00:46:23.799Z,99445.20
2018-10-03T00:48:54.308Z,99455.88
2018-10-03T00:51:24.541Z,99442.42
2018-10-03T00:53:56.000Z,99442.10
2018-10-03T00:56:26.540Z,99434.63
2018-10-03T00:58:57.193Z,99443.64
2018-10-03T01:01:28.546Z,99439.53
2018-10-03T01:03:58.995Z,99446.68
2018-10-03T01:06:29.556Z,99449.17
2018-10-03T01:09:01.337Z,99449.17
2018-10-03T01:11:31.637Z,99455.78
2018-10-03T01:14:02.167Z,99438.05
2018-10-03T01:16:32.744Z,99455.46
2018-10-03T01:19:03.281Z,99462.38
2018-10-03T01:21:33.780Z,99457.02
2018-10-03T01:24:04.302Z,99457.09
2018-10-03T01:26:34.891Z,99457.02
2018-10-03T01:29:05.490Z,99457.41
2018-10-03T01:31:36.124Z,99454.77
2018-10-03T01:34:07.053Z,99460.67
2018-10-03T01:36:37.778Z,99455.77
2018-10-03T01:39:09.542Z,99461.92
2018-10-03T01:41:40.641Z,99460.61
2018-10-03T01:44:11.147Z,99459.73
2018-10-03T01:46:41.727Z,99470.48
2018-10-03T01:49:12.216Z,99473.89
2018-10-03T01:51:42.797Z,99481.70
2018-10-03T01:54:13.388Z,99476.68
2018-10-03T01:56:43.912Z,99472.09
2018-10-03T01:59:14.438Z,99474.57
2018-10-03T02:01:45.705Z,99466.03
2018-10-03T02:04:16.364Z,99473.97
2018-10-03T02:06:46.906Z,99469.23
2018-10-03T02:09:17.416Z,99303.44
2018-10-03T02:11:47.659Z,99462.20
2018-10-03T02:14:17.900Z,99478.47
2018-10-03T02:16:48.407Z,99483.06
2018-10-03T02:19:19.041Z,99486.84
2018-10-03T02:21:49.777Z,99479.37
2018-10-03T02:24:20.650Z,99484.47
2018-10-03T02:26:51.204Z,99468.48
2018-10-03T02:29:21.736Z,99475.29
2018-10-03T02:31:52.230Z,99469.92
2018-10-03T02:34:22.814Z,99465.33
2018-10-03T02:36:53.548Z,99473.20
2018-10-03T02:39:24.133Z,99452.63
2018-10-03T02:41:54.619Z,99461.67
2018-10-03T02:44:25.770Z,99464.84
2018-10-03T02:46:56.501Z,99130.23
2018-10-03T02:49:27.000Z,99170.78
2018-10-03T02:51:57.699Z,99471.23
2018-10-03T02:54:28.145Z,99449.80
2018-10-03T02:56:58.737Z,99455.28
2018-10-03T02:59:29.426Z,99470.61
2018-10-03T03:02:00.090Z,99467.52
2018-10-03T03:04:30.325Z,99463.53
2018-10-03T03:07:01.139Z,99461.69
2018-10-03T03:09:31.682Z,99459.50
2018-10-03T03:12:02.170Z,99463.67
2018-10-03T03:14:32.436Z,99457.00
2018-10-03T03:17:03.094Z,99458.05
2018-10-03T03:19:33.612Z,99465.34
2018-10-03T03:22:04.137Z,99467.20
2018-10-03T03:24:34.368Z,99467.73
2018-10-03T03:27:05.342Z,99473.88
2018-10-03T03:29:35.637Z,99476.46
2018-10-03T03:32:06.141Z,99472.70
2018-10-03T03:34:36.692Z,99481.55
2018-10-03T03:37:07.509Z,99470.77
2018-10-03T03:39:38.934Z,99486.84
2018-10-03T03:42:09.232Z,99496.24
2018-10-03T03:44:40.024Z,99497.02
2018-10-03T03:47:10.310Z,99504.78
2018-10-03T03:49:40.855Z,99505.66
2018-10-03T03:52:11.382Z,99504.02
2018-10-03T03:54:41.723Z,99496.61
2018-10-03T03:57:12.380Z,99506.79
2018-10-03T03:59:42.949Z,99487.62
2018-10-03T04:02:13.208Z,99503.33
2018-10-03T04:04:43.509Z,99503.03
2018-10-03T04:07:14.139Z,99492.59
2018-10-03T04:09:44.413Z,99491.52
2018-10-03T04:12:14.942Z,99498.81
2018-10-03T04:14:45.508Z,99487.91
2018-10-03T04:17:16.038Z,99476.98
2018-10-03T04:19:46.477Z,99481.17
2018-10-03T04:22:17.068Z,99476.73
2018-10-03T04:24:47.857Z,99494.70
2018-10-03T04:27:18.428Z,99491.05
2018-10-03T04:29:48.960Z,99481.24
2018-10-03T04:32:19.810Z,99500.45
2018-10-03T04:34:50.017Z,99496.55
2018-10-03T04:37:20.520Z,99491.44
2018-10-03T04:39:51.028Z,99494.64
2018-10-03T04:42:21.381Z,99482.81
2018-10-03T04:44:52.112Z,99484.90
2018-10-03T04:47:22.692Z,99467.03
2018-10-03T04:49:53.222Z,99456.91
2018-10-03T04:52:23.769Z,99458.52
2018-10-03T04:54:54.289Z,99462.81
2018-10-03T04:57:25.079Z,99468.77
2018-10-03T04:59:55.928Z,99483.42
2018-10-03T05:02:26.453Z,99476.39
2018-10-03T05:04:57.000Z,99410.52
2018-10-03T05:07:27.817Z,99470.00
2018-10-03T05:09:58.664Z,99469.50
2018-10-03T05:12:29.193Z,99477.62
2018-10-03T05:14:59.712Z,99479.23
2018-10-03T05:17:30.243Z,99483.38
2018-10-03T05:20:00.518Z,99488.11
2018-10-03T05:22:31.118Z,99470.92
2018-10-03T05:25:01.553Z,99472.19
2018-10-03T05:27:31.888Z,99480.50
2018-10-03T05:30:02.420Z,99474.45
2018-10-03T05:32:32.799Z,99481.68
2018-10-03T05:35:03.316Z,99467.98
2018-10-03T05:37:33.852Z,99460.67
2018-10-03T05:40:04.406Z,99457.71
2018-10-03T05:42:35.297Z,99468.28
2018-10-03T05:45:05.851Z,99468.43
2018-10-03T05:47:36.879Z,99473.70
2018-10-03T05:50:07.780Z,99463.88
2018-10-03T05:52:38.521Z,99477.38
2018-10-03T05:55:09.049Z,99468.13
2018-10-03T05:57:39.917Z,99469.23
2018-10-03T06:00:10.746Z,99474.91
2018-10-03T06:02:43.049Z,99478.88
2018-10-03T06:05:13.512Z,99497.84
2018-10-03T06:07:44.112Z,99498.92
2018-10-03T06:10:14.365Z,99502.27
2018-10-03T06:12:44.924Z,99492.41
2018-10-03T06:15:15.414Z,99489.38
2018-10-03T06:17:46.037Z,99492.22
2018-10-03T06:20:16.646Z,99491.93
2018-10-03T06:22:47.404Z,99492.16
2018-10-03T06:25:17.747Z,99493.34
2018-10-03T06:27:48.424Z,99495.66
2018-10-03T06:30:19.160Z,99505.73
2018-10-03T06:32:49.563Z,99500.25
2018-10-03T06:35:20.263Z,99513.86
2018-10-03T06:37:51.201Z,99518.44
2018-10-03T06:40:21.752Z,99515.94
2018-10-03T06:42:52.196Z,99522.72
2018-10-03T06:45:22.768Z,99515.33
2018-10-03T06:47:53.280Z,99522.89
2018-10-03T06:50:24.817Z,99522.47
2018-10-03T06:52:55.241Z,99528.16
2018-10-03T06:55:25.844Z,99523.08
2018-10-03T06:57:56.375Z,99515.83
2018-10-03T07:00:27.569Z,99512.95
2018-10-03T07:02:58.151Z,99521.84
2018-10-03T07:05:28.387Z,99528.34
2018-10-03T07:07:59.088Z,99518.31
2018-10-03T07:10:29.658Z,99517.17
2018-10-03T07:13:00.458Z,99520.02
2018-10-03T07:15:31.634Z,99525.80
2018-10-03T07:18:02.161Z,99535.95
2018-10-03T07:20:33.094Z,99535.42
2018-10-03T07:23:03.804Z,99541.86
2018-10-03T07:25:34.364Z,99546.21
2018-10-03T07:28:04.923Z,99543.52
2018-10-03T07:30:35.448Z,99538.73
2018-10-03T07:33:06.238Z,99534.33
2018-10-03T07:35:37.005Z,99537.09
2018-10-03T07:38:07.867Z,99547.67
2018-10-03T07:40:38.885Z,99546.37
2018-10-03T07:43:09.410Z,99551.61
2018-10-03T07:45:39.836Z,99543.95
2018-10-03T07:48:10.445Z,99546.44
2018-10-03T07:50:40.884Z,99534.98
2018-10-03T07:53:11.125Z,99533.24
2018-10-03T07:55:41.378Z,99534.11
2018-10-03T07:58:12.168Z,99537.46
2018-10-03T08:00:42.921Z,99527.80
2018-10-03T08:03:14.935Z,99530.52
2018-10-03T08:05:45.220Z,99524.98
2018-10-03T08:08:15.435Z,99521.04
2018-10-03T08:10:45.980Z,99528.56
2018-10-03T08:13:16.193Z,99525.16
2018-10-03T08:15:46.779Z,99527.67
2018-10-03T08:18:17.333Z,99533.98
2018-10-03T08:20:47.620Z,99538.91
2018-10-03T08:23:18.597Z,99543.71
2018-10-03T08:25:48.861Z,99531.76
2018-10-03T08:28:19.426Z,99541.30
2018-10-03T08:30:49.798Z,99532.81
2018-10-03T08:33:20.533Z,99541.70
2018-10-03T08:35:51.330Z,99540.33
2018-10-03T08:38:21.581Z,99542.74
2018-10-03T08:40:52.698Z,99549.67
2018-10-03T08:43:23.873Z,99538.83
2018-10-03T08:45:54.528Z,99545.28
2018-10-03T08:48:25.227Z,99533.01
2018-10-03T08:50:56.692Z,99537.74
2018-10-03T08:53:27.495Z,99527.19
2018-10-03T08:55:58.019Z,99516.09
2018-10-03T08:58:28.795Z,99525.86
2018-10-03T09:00:59.904Z,99537.10
2018-10-03T09:03:30.149Z,99535.36
2018-10-03T09:06:00.649Z,99548.07
2018-10-03T09:08:31.736Z,99547.28
2018-10-03T09:11:02.285Z,99543.72
2018-10-03T09:13:32.720Z,99540.09
2018-10-03T09:16:03.272Z,99540.61
2018-10-03T09:18:34.034Z,99551.29
2018-10-03T09:21:07.161Z,99545.98
2018-10-03T09:23:38.906Z,99557.30
2018-10-03T09:26:09.457Z,99525.41
2018-10-03T09:28:43.615Z,99533.22
2018-10-03T09:31:14.936Z,99539.98
2018-10-03T09:33:45.520Z,99546.34
2018-10-03T09:36:16.501Z,99556.05
2018-10-03T09:38:46.899Z,99547.97
2018-10-03T09:41:17.416Z,99535.34
2018-10-03T09:43:47.980Z,99527.66
2018-10-03T09:46:19.358Z,99527.77
2018-10-03T09:48:49.900Z,99536.67
2018-10-03T09:51:20.600Z,99496.61
2018-10-03T09:53:51.097Z,99519.58
2018-10-03T09:56:21.647Z,99528.47
2018-10-03T09:58:51.890Z,99517.36
2018-10-03T10:01:29.985Z,99529.28
2018-10-03T10:04:02.085Z,99530.17
2018-10-03T10:06:33.418Z,99531.84
2018-10-03T10:09:05.526Z,99518.94
2018-10-03T10:11:36.181Z,99534.36
2018-10-03T10:14:08.752Z,99535.22
2018-10-03T10:16:40.442Z,99538.31
2018-10-03T10:19:10.702Z,99546.94
2018-10-03T10:21:40.965Z,99542.19
2018-10-03T10:24:12.117Z,99541.36
2018-10-03T10:26:42.319Z,99555.73
2018-10-03T10:29:12.561Z,99550.74
2018-10-03T10:31:43.354Z,99553.34
2018-10-03T10:34:13.840Z,99555.38
2018-10-03T10:36:44.343Z,99548.78
2018-10-03T10:39:14.579Z,99563.84
2018-10-03T10:41:45.163Z,99552.72
2018-10-03T10:44:15.968Z,99546.48
2018-10-03T10:46:46.294Z,99543.06
2018-10-03T10:49:16.993Z,99549.15
2018-10-03T10:51:47.585Z,99526.84
2018-10-03T10:54:18.261Z,99531.95
2018-10-03T10:56:48.765Z,99534.21
2018-10-03T10:59:19.481Z,99542.62
2018-10-03T11:01:50.348Z,99538.13
2018-10-03T11:04:20.996Z,99534.92
2018-10-03T11:06:52.213Z,99516.46
2018-10-03T11:09:23.216Z,99518.75
2018-10-03T11:11:54.017Z,99517.69
2018-10-03T11:14:24.572Z,99511.26
2018-10-03T11:16:55.165Z,99503.56
2018-10-03T11:19:25.653Z,99520.27
2018-10-03T11:21:56.184Z,99517.58
2018-10-03T11:24:27.037Z,99492.41
2018-10-03T11:26:57.461Z,99504.48
2018-10-03T11:29:28.311Z,99505.06
2018-10-03T11:31:59.196Z,99497.14
2018-10-03T11:34:30.069Z,99502.14
2018-10-03T11:37:01.136Z,99499.38
2018-10-03T11:39:31.981Z,99506.45
2018-10-03T11:42:02.506Z,99497.95
2018-10-03T11:44:32.885Z,99499.82
2018-10-03T11:47:03.253Z,99495.34
2018-10-03T11:49:33.775Z,99492.70
2018-10-03T11:52:04.021Z,99483.73
2018-10-03T11:54:34.839Z,99488.25
2018-10-03T11:57:05.122Z,99495.11
2018-10-03T11:59:35.944Z,99476.56
2018-10-03T12:02:06.339Z,99480.01
2018-10-03T12:04:36.890Z,99502.27
2018-10-03T12:07:07.126Z,99499.97
2018-10-03T12:09:38.360Z,99510.06
2018-10-03T12:12:08.744Z,99504.25
2018-10-03T12:14:40.301Z,99505.85
2018-10-03T12:17:10.557Z,99488.98
2018-10-03T12:19:40.788Z,99479.47
2018-10-03T12:22:11.075Z,99481.56
2018-10-03T12:24:41.842Z,99488.38
2018-10-03T12:27:12.347Z,99508.81
2018-10-03T12:29:42.883Z,99503.11
2018-10-03T12:32:13.422Z,99503.89
2018-10-03T12:34:44.214Z,99498.64
2018-10-03T12:37:14.760Z,99500.52
2018-10-03T12:39:45.814Z,99492.48
2018-10-03T12:42:16.641Z,99496.38
2018-10-03T12:44:49.751Z,99502.98
2018-10-03T12:47:20.285Z,99500.26
2018-10-03T12:49:50.552Z,99503.49
2018-10-03T12:52:21.795Z,99496.04
2018-10-03T12:54:52.488Z,99497.53
2018-10-03T12:57:22.773Z,99503.13
2018-10-03T12:59:53.333Z,99507.95
2018-10-03T13:02:23.593Z,99500.28
2018-10-03T13:04:53.985Z,99497.13
2018-10-03T13:07:24.243Z,99515.16
2018-10-03T13:09:54.937Z,99507.02
2018-10-03T13:12:25.549Z,99511.52
2018-10-03T13:14:55.810Z,99516.01
2018-10-03T13:17:26.941Z,99513.23
2018-10-03T13:19:57.484Z,99522.38
2018-10-03T13:22:27.996Z,99508.99
2018-10-03T13:24:58.497Z,99516.78
2018-10-03T13:27:28.973Z,99509.66
2018-10-03T13:29:59.500Z,99519.78
2018-10-03T13:32:29.996Z,99522.94
2018-10-03T13:35:00.504Z,99518.17
2018-10-03T13:37:31.009Z,99506.45
2018-10-03T13:40:02.390Z,99506.70
2018-10-03T13:42:33.117Z,99453.89
2018-10-03T13:45:03.630Z,99515.39
2018-10-03T13:47:34.173Z,99507.48
2018-10-03T13:50:05.052Z,99502.66
2018-10-03T13:52:36.161Z,99243.03
2018-10-03T13:55:06.709Z,99503.41
2018-10-03T13:57:37.202Z,99502.16
2018-10-03T14:00:08.670Z,99502.62
2018-10-03T14:02:41.256Z,99505.97
2018-10-03T14:05:11.641Z,99505.59
2018-10-03T14:07:42.109Z,99513.06
2018-10-03T14:10:13.023Z,99524.56
2018-10-03T14:12:43.293Z,99517.50
2018-10-03T14:15:13.538Z,99506.89
2018-10-03T14:17:44.495Z,99504.64
2018-10-03T14:20:15.262Z,99393.69
2018-10-03T14:22:45.518Z,99517.60
2018-10-03T14:25:15.748Z,99513.58
2018-10-03T14:27:46.280Z,99505.80
2018-10-03T14:30:16.772Z,99513.61
2018-10-03T14:32:47.360Z,99514.08
2018-10-03T14:35:18.583Z,99493.20
2018-10-03T14:37:49.093Z,99543.83
2018-10-03T14:40:19.942Z,99513.22
2018-10-03T14:42:50.468Z,99512.61
2018-10-03T14:45:21.142Z,99527.80
2018-10-03T14:47:51.643Z,99522.63
2018-10-03T14:50:22.177Z,99537.24
2018-10-03T14:52:53.309Z,99533.64
2018-10-03T14:55:23.823Z,99534.42
2018-10-03T14:57:54.386Z,99537.83
2018-10-03T15:00:25.395Z,99534.30
2018-10-03T15:02:55.954Z,99544.62
2018-10-03T15:05:26.492Z,99544.42
2018-10-03T15:07:56.952Z,99551.63
2018-10-03T15:10:27.526Z,99556.18
2018-10-03T15:12:58.166Z,99555.73
2018-10-03T15:15:28.825Z,99563.45
2018-10-03T15:17:59.109Z,99562.30
2018-10-03T15:20:29.574Z,99573.09
2018-10-03T15:22:59.898Z,99572.21
2018-10-03T15:25:30.402Z,99584.15
2018-10-03T15:28:01.228Z,99599.34
2018-10-03T15:30:31.486Z,99603.38
2018-10-03T15:33:01.977Z,99602.44
2018-10-03T15:35:32.326Z,99604.63
2018-10-03T15:38:02.756Z,99612.95
2018-10-03T15:40:32.990Z,99616.32
2018-10-03T15:43:03.541Z,99615.48
2018-10-03T15:45:34.050Z,99623.17
2018-10-03T15:48:04.610Z,99624.69
2018-10-03T15:50:35.334Z,99621.05
2018-10-03T15:53:06.004Z,99622.97
2018-10-03T15:55:36.400Z,99621.34
2018-10-03T15:58:07.018Z,99619.55
2018-10-03T16:00:37.366Z,99622.52
2018-10-03T16:03:08.061Z,99627.73
2018-10-03T16:05:38.588Z,99634.38
2018-10-03T16:08:09.158Z,99629.16
2018-10-03T16:10:40.255Z,99641.34
2018-10-03T16:13:10.516Z,99642.95
2018-10-03T16:15:40.836Z,99650.91
2018-10-03T16:18:11.075Z,99656.14
2018-10-03T16:20:41.343Z,99658.10
2018-10-03T16:23:11.665Z,99659.72
2018-10-03T16:25:42.661Z,99659.72
2018-10-03T16:28:13.713Z,99666.08
2018-10-03T16:30:44.538Z,99680.98
2018-10-03T16:33:24.065Z,99683.17
2018-10-03T16:36:02.793Z,99688.87
2018-10-03T16:38:34.841Z,99692.77
2018-10-03T16:41:05.700Z,99707.84
2018-10-03T16:43:35.937Z,99699.20
2018-10-03T16:46:07.017Z,99703.19
2018-10-03T16:48:37.658Z,99703.40
2018-10-03T16:51:07.914Z,99720.21
2018-10-03T16:53:38.419Z,99716.80
2018-10-03T16:56:09.003Z,99717.93
2018-10-03T16:58:39.834Z,99732.34
2018-10-03T17:01:10.445Z,99743.92
2018-10-03T17:03:40.685Z,99748.87
2018-10-03T17:06:11.268Z,99750.37
2018-10-03T17:08:41.811Z,99762.53
2018-10-03T17:11:12.082Z,99756.34
2018-10-03T17:13:53.288Z,99766.14
2018-10-03T17:16:23.538Z,99767.09
2018-10-03T17:18:54.054Z,99769.19
2018-10-03T17:21:24.568Z,99773.03
2018-10-03T17:23:55.121Z,99771.41
2018-10-03T17:26:25.986Z,99781.14
2018-10-03T17:28:56.524Z,99747.38
2018-10-03T17:31:27.007Z,99783.05
2018-10-03T17:33:57.552Z,99787.59
2018-10-03T17:36:28.225Z,99784.20
2018-10-03T17:38:58.909Z,99790.70
2018-10-03T17:41:29.454Z,99794.17
2018-10-03T17:44:00.136Z,99800.19
2018-10-03T17:46:30.572Z,99801.13
2018-10-03T17:49:00.902Z,99798.48
2018-10-03T17:51:31.329Z,99800.41
2018-10-03T17:54:02.112Z,99799.37
2018-10-03T17:56:33.201Z,99806.00
2018-10-03T17:59:04.155Z,99815.86
2018-10-03T18:01:36.432Z,99816.63
2018-10-03T18:04:07.348Z,99820.73
2018-10-03T18:06:38.252Z,99827.81
2018-10-03T18:09:10.994Z,99831.95
2018-10-03T18:11:41.678Z,99844.08
2018-10-03T18:14:12.176Z,99837.36
2018-10-03T18:16:42.672Z,99839.57
2018-10-03T18:19:12.993Z,99842.38
2018-10-03T18:21:43.237Z,99845.33
2018-10-03T18:24:13.662Z,99843.92
2018-10-03T18:26:44.209Z,99846.96
2018-10-03T18:29:14.749Z,99857.42
2018-10-03T18:31:45.839Z,99851.78
2018-10-03T18:34:16.352Z,99860.00
2018-10-03T18:36:46.690Z,99856.55
2018-10-03T18:39:17.495Z,99860.30
2018-10-03T18:41:48.162Z,99859.31
2018-10-03T18:44:19.292Z,99867.47
2018-10-03T18:46:50.173Z,99870.64
2018-10-03T18:49:21.126Z,99872.72
2018-10-03T18:51:51.715Z,99878.22
2018-10-03T18:54:22.490Z,99887.34
2018-10-03T18:56:53.319Z,99888.44
2018-10-03T18:59:24.638Z,99865.76
2018-10-03T19:01:55.337Z,99872.11
2018-10-03T19:04:26.675Z,99899.28
2018-10-03T19:06:57.809Z,99905.58
2018-10-03T19:09:28.522Z,99909.16
2018-10-03T19:12:00.509Z,99907.06
2018-10-03T19:14:31.062Z,99908.65
2018-10-03T19:17:01.853Z,99911.17
2018-10-03T19:19:32.388Z,99913.48
2018-10-03T19:22:03.072Z,99916.13
2018-10-03T19:24:34.437Z,99923.36
2018-10-03T19:27:05.452Z,99924.62
2018-10-03T19:29:36.304Z,99926.19
2018-10-03T19:32:06.904Z,99930.87
2018-10-03T19:34:37.464Z,99942.41
2018-10-03T19:37:08.264Z,99947.16
2018-10-03T19:39:38.855Z,99949.36
2018-10-03T19:42:09.250Z,99958.48
2018-10-03T19:44:40.483Z,99955.75
2018-10-03T19:47:11.465Z,99961.15
2018-10-03T19:49:42.045Z,99966.97
2018-10-03T19:52:13.821Z,99960.84
2018-10-03T19:54:44.369Z,99970.56
2018-10-03T19:57:15.006Z,99966.94
2018-10-03T19:59:45.219Z,99970.33
2018-10-03T20:02:15.439Z,99973.83
2018-10-03T20:04:46.250Z,99972.95
2018-10-03T20:07:18.532Z,99977.31
2018-10-03T20:09:48.872Z,99986.88
2018-10-03T20:12:19.109Z,99987.39
2018-10-03T20:14:49.621Z,99985.72
2018-10-03T20:17:19.893Z,99998.31
2018-10-03T20:19:50.412Z,100004.89
2018-10-03T20:22:22.081Z,99999.16
2018-10-03T20:24:53.042Z,100002.09
2018-10-03T20:27:24.084Z,100013.39
2018-10-03T20:29:54.495Z,100014.55
2018-10-03T20:32:25.118Z,100014.33
2018-10-03T20:34:55.846Z,100022.27
2018-10-03T20:37:26.100Z,100013.41
2018-10-03T20:39:56.726Z,100024.55
2018-10-03T20:42:27.259Z,100030.70
2018-10-03T20:44:57.851Z,100025.66
2018-10-03T20:47:28.655Z,100024.33
2018-10-03T20:49:59.164Z,100027.78
2018-10-03T20:52:30.058Z,100023.48
2018-10-03T20:55:00.851Z,100030.50
2018-10-03T20:57:31.695Z,100033.84
2018-10-03T21:00:02.072Z,100043.78
2018-10-03T21:02:32.396Z,100050.29
2018-10-03T21:05:02.925Z,100052.06
2018-10-03T21:07:34.755Z,100041.00
2018-10-03T21:10:05.392Z,100052.95
2018-10-03T21:12:36.388Z,100054.51
2018-10-03T21:15:07.024Z,100062.64
2018-10-03T21:17:37.692Z,100063.35
2018-10-03T21:20:08.237Z,100075.31
2018-10-03T21:22:38.938Z,100064.58
2018-10-03T21:25:09.182Z,100068.68
2018-10-03T21:27:39.578Z,100073.06
2018-10-03T21:30:10.448Z,100075.22
2018-10-03T21:32:40.719Z,100085.28
2018-10-03T21:35:11.144Z,100088.42
2018-10-03T21:37:41.982Z,100087.39
2018-10-03T21:40:12.516Z,100082.44
2018-10-03T21:42:43.044Z,100082.97
2018-10-03T21:45:13.725Z,100092.77
2018-10-03T21:47:44.909Z,100088.14
2018-10-03T21:50:17.970Z,100094.90
2018-10-03T21:52:49.533Z,100091.69
2018-10-03T21:55:22.226Z,100090.75
2018-10-03T21:57:53.913Z,100098.06
2018-10-03T22:00:30.233Z,100101.33
2018-10-03T22:03:05.216Z,100105.34
2018-10-03T22:05:35.671Z,100102.23
2018-10-03T22:08:06.670Z,100110.12
2018-10-03T22:10:36.933Z,100111.13
2018-10-03T22:13:07.450Z,100114.10
2018-10-03T22:15:38.044Z,100108.53
2018-10-03T22:18:08.554Z,100110.02
2018-10-03T22:20:40.173Z,100109.59
2018-10-03T22:23:10.796Z,100113.22
2018-10-03T22:25:41.470Z,100112.61
2018-10-03T22:28:12.429Z,100114.28
2018-10-03T22:30:42.928Z,100105.87
2018-10-03T22:33:19.135Z,100105.61
2018-10-03T22:35:50.411Z,100097.35
2018-10-03T22:38:20.789Z,100120.45
2018-10-03T22:40:51.350Z,100091.69
2018-10-03T22:43:21.860Z,100126.24
2018-10-03T22:45:52.476Z,100124.75
2018-10-03T22:48:23.054Z,100129.77
2018-10-03T22:50:53.396Z,100130.98
2018-10-03T22:53:23.929Z,100132.55
2018-10-03T22:55:54.830Z,100138.05
2018-10-03T22:58:25.915Z,100134.20
2018-10-03T23:00:56.724Z,100132.78
2018-10-03T23:03:27.332Z,100138.27
2018-10-03T23:05:57.971Z,100132.67
2018-10-03T23:08:28.678Z,100130.50
2018-10-03T23:10:58.935Z,100126.38
2018-10-03T23:13:29.465Z,100140.48
2018-10-03T23:16:00.351Z,100138.39
2018-10-03T23:18:30.881Z,100140.48
2018-10-03T23:21:01.611Z,100143.77
2018-10-03T23:23:32.012Z,100148.00
2018-10-03T23:26:02.259Z,100147.34
2018-10-03T23:28:33.321Z,100160.05
2018-10-03T23:31:04.152Z,100154.60
2018-10-03T23:33:34.902Z,100163.36
2018-10-03T23:36:06.059Z,100165.73
2018-10-03T23:38:36.595Z,100162.48
2018-10-03T23:41:07.366Z,100160.77
2018-10-03T23:43:42.100Z,100159.02
2018-10-03T23:46:12.516Z,100168.41
2018-10-03T23:48:43.148Z,100162.09
2018-10-03T23:51:13.677Z,100165.97
2018-10-03T23:53:44.393Z,100168.50
2018-10-03T23:56:16.437Z,100166.39
2018-10-03T23:58:46.983Z,100163.61
